sensor_id;sensor_type;location;lat;lon;timestamp;pressure;altitude;pressure_sealevel;temperature;humidity
74529;BME280;63009;52.584;5.932;2023-04-09T00:00:31;102732.25;;;8.22;99.84
74529;BME280;63009;52.584;5.932;2023-04-09T00:02:56;102721.75;;;8.20;99.83
74529;BME280;63009;52.584;5.932;2023-04-09T00:05:22;102734.78;;;8.26;99.87
74529;BME280;63009;52.584;5.932;2023-04-09T00:07:47;102734.84;;;8.23;100.00
74529;BME280;63009;52.584;5.932;2023-04-09T00:10:12;102724.44;;;8.17;100.00
74529;BME280;63009;52.584;5.932;2023-04-09T00:12:37;102736.63;;;8.23;100.00
74529;BME280;63009;52.584;5.932;2023-04-09T00:15:03;102705.31;;;8.08;100.00
74529;BME280;63009;52.584;5.932;2023-04-09T00:17:28;102716.50;;;8.19;100.00
74529;BME280;63009;52.584;5.932;2023-04-09T00:19:53;102722.66;;;8.19;100.00
74529;BME280;63009;52.584;5.932;2023-04-09T00:22:19;102713.81;;;8.22;100.00
74529;BME280;63009;52.584;5.932;2023-04-09T00:24:44;102716.44;;;8.22;100.00
74529;BME280;63009;52.584;5.932;2023-04-09T00:27:10;102708.66;;;8.16;100.00
74529;BME280;63009;52.584;5.932;2023-04-09T00:29:35;102710.41;;;8.17;100.00
74529;BME280;63009;52.584;5.932;2023-04-09T00:32:00;102700.84;;;8.11;99.82
74529;BME280;63009;52.584;5.932;2023-04-09T00:34:26;102699.84;;;8.18;100.00
74529;BME280;63009;52.584;5.932;2023-04-09T00:36:51;102703.31;;;8.20;99.80
74529;BME280;63009;52.584;5.932;2023-04-09T00:39:16;102706.00;;;8.16;99.91
74529;BME280;63009;52.584;5.932;2023-04-09T00:41:41;102695.50;;;8.14;99.93
74529;BME280;63009;52.584;5.932;2023-04-09T00:44:07;102705.16;;;8.15;100.00
74529;BME280;63009;52.584;5.932;2023-04-09T00:46:32;102699.88;;;8.17;100.00
74529;BME280;63009;52.584;5.932;2023-04-09T00:48:58;102709.56;;;8.13;100.00
74529;BME280;63009;52.584;5.932;2023-04-09T00:51:23;102696.41;;;8.13;100.00
74529;BME280;63009;52.584;5.932;2023-04-09T00:53:49;102692.94;;;8.11;100.00
74529;BME280;63009;52.584;5.932;2023-04-09T00:56:16;102698.13;;;8.14;100.00
74529;BME280;63009;52.584;5.932;2023-04-09T00:58:41;102695.47;;;8.16;100.00
74529;BME280;63009;52.584;5.932;2023-04-09T01:01:06;102695.47;;;8.16;100.00
74529;BME280;63009;52.584;5.932;2023-04-09T01:03:32;102686.72;;;8.15;100.00
74529;BME280;63009;52.584;5.932;2023-04-09T01:06:11;102678.06;;;8.09;100.00
74529;BME280;63009;52.584;5.932;2023-04-09T01:08:57;102689.34;;;8.15;100.00
74529;BME280;63009;52.584;5.932;2023-04-09T01:17:16;102686.84;;;8.09;100.00
74529;BME280;63009;52.584;5.932;2023-04-09T01:19:48;102686.91;;;8.06;100.00
74529;BME280;63009;52.584;5.932;2023-04-09T01:25:31;102682.53;;;8.05;100.00
74529;BME280;63009;52.584;5.932;2023-04-09T01:30:39;102689.63;;;8.00;100.00
74529;BME280;63009;52.584;5.932;2023-04-09T01:33:07;102686.03;;;8.06;100.00
74529;BME280;63009;52.584;5.932;2023-04-09T01:35:33;102683.47;;;8.02;100.00
74529;BME280;63009;52.584;5.932;2023-04-09T01:37:59;102686.09;;;8.02;100.00
74529;BME280;63009;52.584;5.932;2023-04-09T01:40:25;102652.13;;;7.87;100.00
74529;BME280;63009;52.584;5.932;2023-04-09T01:42:51;102682.66;;;7.97;100.00
74529;BME280;63009;52.584;5.932;2023-04-09T01:45:17;102668.59;;;7.98;100.00
74529;BME280;63009;52.584;5.932;2023-04-09T01:47:42;102657.38;;;7.89;100.00
74529;BME280;63009;52.584;5.932;2023-04-09T01:50:09;102672.13;;;7.97;100.00
74529;BME280;63009;52.584;5.932;2023-04-09T01:52:34;102667.75;;;7.96;100.00
74529;BME280;63009;52.584;5.932;2023-04-09T01:55:00;102672.06;;;8.00;100.00
74529;BME280;63009;52.584;5.932;2023-04-09T01:57:25;102666.88;;;7.96;100.00
74529;BME280;63009;52.584;5.932;2023-04-09T01:59:51;102668.66;;;7.95;100.00
74529;BME280;63009;52.584;5.932;2023-04-09T02:02:18;102660.63;;;8.01;100.00
74529;BME280;63009;52.584;5.932;2023-04-09T02:04:46;102653.78;;;7.93;100.00
74529;BME280;63009;52.584;5.932;2023-04-09T02:07:32;102639.09;;;7.80;100.00
74529;BME280;63009;52.584;5.932;2023-04-09T02:10:03;102665.22;;;7.92;100.00
74529;BME280;63009;52.584;5.932;2023-04-09T02:12:30;102659.16;;;7.88;100.00
74529;BME280;63009;52.584;5.932;2023-04-09T02:14:57;102650.38;;;7.86;100.00
74529;BME280;63009;52.584;5.932;2023-04-09T02:17:25;102659.16;;;7.88;100.00
74529;BME280;63009;52.584;5.932;2023-04-09T02:19:50;102653.88;;;7.87;100.00
74529;BME280;63009;52.584;5.932;2023-04-09T02:22:15;102651.25;;;7.88;100.00
74529;BME280;63009;52.584;5.932;2023-04-09T02:24:41;102658.25;;;7.88;100.00
74529;BME280;63009;52.584;5.932;2023-04-09T02:27:07;102649.47;;;7.87;100.00
74529;BME280;63009;52.584;5.932;2023-04-09T02:29:32;102650.38;;;7.86;100.00
74529;BME280;63009;52.584;5.932;2023-04-09T02:31:57;102650.34;;;7.88;100.00
74529;BME280;63009;52.584;5.932;2023-04-09T02:34:23;102634.81;;;7.76;100.00
74529;BME280;63009;52.584;5.932;2023-04-09T02:36:48;102645.94;;;7.90;100.00
74529;BME280;63009;52.584;5.932;2023-04-09T02:39:13;102645.97;;;7.87;100.00
74529;BME280;63009;52.584;5.932;2023-04-09T02:41:39;102643.50;;;7.79;100.00
74529;BME280;63009;52.584;5.932;2023-04-09T02:44:04;102643.38;;;7.85;100.00
74529;BME280;63009;52.584;5.932;2023-04-09T02:46:30;102646.91;;;7.84;100.00
74529;BME280;63009;52.584;5.932;2023-04-09T02:48:55;102619.94;;;7.71;100.00
74529;BME280;63009;52.584;5.932;2023-04-09T02:51:20;102621.84;;;7.63;100.00
74529;BME280;63009;52.584;5.932;2023-04-09T02:53:45;102628.72;;;7.72;100.00
74529;BME280;63009;52.584;5.932;2023-04-09T02:56:11;102626.09;;;7.70;100.00
74529;BME280;63009;52.584;5.932;2023-04-09T02:58:36;102613.91;;;7.66;100.00
74529;BME280;63009;52.584;5.932;2023-04-09T03:01:01;102635.63;;;7.79;100.00
74529;BME280;63009;52.584;5.932;2023-04-09T03:03:27;102638.31;;;7.76;100.00
74529;BME280;63009;52.584;5.932;2023-04-09T03:05:52;102633.03;;;7.76;100.00
74529;BME280;63009;52.584;5.932;2023-04-09T03:08:18;102628.75;;;7.69;100.00
74529;BME280;63009;52.584;5.932;2023-04-09T03:10:43;102629.75;;;7.63;100.00
74529;BME280;63009;52.584;5.932;2023-04-09T03:13:08;102642.81;;;7.68;100.00
74529;BME280;63009;52.584;5.932;2023-04-09T03:15:34;102633.16;;;7.68;100.00
74529;BME280;63009;52.584;5.932;2023-04-09T03:17:59;102627.03;;;7.68;100.00
74529;BME280;63009;52.584;5.932;2023-04-09T03:20:24;102630.59;;;7.65;100.00
74529;BME280;63009;52.584;5.932;2023-04-09T03:22:49;102622.78;;;7.61;100.00
74529;BME280;63009;52.584;5.932;2023-04-09T03:25:15;102629.81;;;7.60;100.00
74529;BME280;63009;52.584;5.932;2023-04-09T03:27:40;102634.19;;;7.60;100.00
74529;BME280;63009;52.584;5.932;2023-04-09T03:30:06;102634.19;;;7.61;100.00
74529;BME280;63009;52.584;5.932;2023-04-09T03:32:31;102625.44;;;7.58;100.00
74529;BME280;63009;52.584;5.932;2023-04-09T03:34:56;102630.66;;;7.62;100.00
74529;BME280;63009;52.584;5.932;2023-04-09T03:37:22;102636.00;;;7.56;100.00
74529;BME280;63009;52.584;5.932;2023-04-09T03:39:47;102635.16;;;7.54;100.00
74529;BME280;63009;52.584;5.932;2023-04-09T03:42:12;102632.56;;;7.53;100.00
74529;BME280;63009;52.584;5.932;2023-04-09T03:44:37;102631.69;;;7.52;100.00
74529;BME280;63009;52.584;5.932;2023-04-09T03:47:03;102624.69;;;7.51;100.00
74529;BME280;63009;52.584;5.932;2023-04-09T03:49:28;102625.66;;;7.47;100.00
74529;BME280;63009;52.584;5.932;2023-04-09T03:51:53;102622.03;;;7.53;100.00
74529;BME280;63009;52.584;5.932;2023-04-09T03:54:18;102615.97;;;7.49;100.00
74529;BME280;63009;52.584;5.932;2023-04-09T03:56:44;102622.97;;;7.50;100.00
74529;BME280;63009;52.584;5.932;2023-04-09T03:59:09;102619.53;;;7.45;100.00
74529;BME280;63009;52.584;5.932;2023-04-09T04:01:34;102612.53;;;7.44;100.00
74529;BME280;63009;52.584;5.932;2023-04-09T04:04:00;102614.25;;;7.45;100.00
74529;BME280;63009;52.584;5.932;2023-04-09T04:06:25;102611.75;;;7.39;100.00
74529;BME280;63009;52.584;5.932;2023-04-09T04:08:51;102616.06;;;7.43;100.00
74529;BME280;63009;52.584;5.932;2023-04-09T04:11:17;102609.97;;;7.41;100.00
74529;BME280;63009;52.584;5.932;2023-04-09T04:13:42;102620.41;;;7.44;100.00
74529;BME280;63009;52.584;5.932;2023-04-09T04:16:08;102615.16;;;7.44;100.00
74529;BME280;63009;52.584;5.932;2023-04-09T04:18:34;102601.31;;;7.34;100.00
74529;BME280;63009;52.584;5.932;2023-04-09T04:20:59;102620.41;;;7.44;100.00
74529;BME280;63009;52.584;5.932;2023-04-09T04:23:25;102610.88;;;7.38;100.00
74529;BME280;63009;52.584;5.932;2023-04-09T04:25:50;102625.66;;;7.47;100.00
74529;BME280;63009;52.584;5.932;2023-04-09T04:28:17;102618.66;;;7.46;100.00
74529;BME280;63009;52.584;5.932;2023-04-09T04:30:42;102615.09;;;7.49;100.00
74529;BME280;63009;52.584;5.932;2023-04-09T04:33:08;102616.00;;;7.48;100.00
74529;BME280;63009;52.584;5.932;2023-04-09T04:35:33;102610.75;;;7.46;100.00
74529;BME280;63009;52.584;5.932;2023-04-09T04:37:58;102614.25;;;7.47;100.00
74529;BME280;63009;52.584;5.932;2023-04-09T04:40:23;102620.31;;;7.52;100.00
74529;BME280;63009;52.584;5.932;2023-04-09T04:42:49;102605.56;;;7.41;100.00
74529;BME280;63009;52.584;5.932;2023-04-09T04:45:14;102615.19;;;7.42;100.00
74529;BME280;63009;52.584;5.932;2023-04-09T04:47:39;102618.66;;;7.46;100.00
74529;BME280;63009;52.584;5.932;2023-04-09T04:50:05;102611.66;;;7.43;100.00
74529;BME280;63009;52.584;5.932;2023-04-09T04:52:31;102617.75;;;7.47;100.00
74529;BME280;63009;52.584;5.932;2023-04-09T04:54:56;102616.91;;;7.45;100.00
74529;BME280;63009;52.584;5.932;2023-04-09T04:57:21;102626.56;;;7.46;100.00
74529;BME280;63009;52.584;5.932;2023-04-09T04:59:47;102624.78;;;7.45;100.00
74529;BME280;63009;52.584;5.932;2023-04-09T05:02:12;102630.03;;;7.45;100.00
74529;BME280;63009;52.584;5.932;2023-04-09T05:04:37;102626.47;;;7.51;100.00
74529;BME280;63009;52.584;5.932;2023-04-09T05:07:02;102630.00;;;7.50;100.00
74529;BME280;63009;52.584;5.932;2023-04-09T05:09:28;102592.53;;;7.35;100.00
74529;BME280;63009;52.584;5.932;2023-04-09T05:11:53;102609.16;;;7.37;100.00
74529;BME280;63009;52.584;5.932;2023-04-09T05:14:18;102618.66;;;7.44;100.00
74529;BME280;63009;52.584;5.932;2023-04-09T05:16:45;102616.06;;;7.43;100.00
74529;BME280;63009;52.584;5.932;2023-04-09T05:19:11;102612.56;;;7.42;100.00
74529;BME280;63009;52.584;5.932;2023-04-09T05:21:36;102612.56;;;7.42;100.00
74529;BME280;63009;52.584;5.932;2023-04-09T05:24:01;102608.13;;;7.44;100.00
74529;BME280;63009;52.584;5.932;2023-04-09T05:26:27;102611.56;;;7.50;100.00
74529;BME280;63009;52.584;5.932;2023-04-09T05:28:52;102601.97;;;7.47;100.00
74529;BME280;63009;52.584;5.932;2023-04-09T05:31:18;102608.09;;;7.48;100.00
74529;BME280;63009;52.584;5.932;2023-04-09T05:33:43;102612.44;;;7.50;100.00
74529;BME280;63009;52.584;5.932;2023-04-09T05:36:14;102603.66;;;7.51;100.00
74529;BME280;63009;52.584;5.932;2023-04-09T05:38:39;102615.91;;;7.52;100.00
74529;BME280;63009;52.584;5.932;2023-04-09T05:41:05;102611.56;;;7.50;100.00
74529;BME280;63009;52.584;5.932;2023-04-09T05:43:30;102617.66;;;7.52;100.00
74529;BME280;63009;52.584;5.932;2023-04-09T05:45:55;102606.38;;;7.47;100.00
74529;BME280;63009;52.584;5.932;2023-04-09T05:48:20;102618.56;;;7.51;100.00
74529;BME280;63009;52.584;5.932;2023-04-09T05:50:49;102624.63;;;7.54;100.00
74529;BME280;63009;52.584;5.932;2023-04-09T05:53:16;102607.97;;;7.55;100.00
74529;BME280;63009;52.584;5.932;2023-04-09T05:55:41;102620.28;;;7.53;100.00
74529;BME280;63009;52.584;5.932;2023-04-09T05:58:07;102604.59;;;7.47;100.00
74529;BME280;63009;52.584;5.932;2023-04-09T06:00:32;102619.41;;;7.53;100.00
74529;BME280;63009;52.584;5.932;2023-04-09T06:02:57;102622.91;;;7.53;100.00
74529;BME280;63009;52.584;5.932;2023-04-09T06:05:22;102625.50;;;7.55;100.00
74529;BME280;63009;52.584;5.932;2023-04-09T06:07:48;102628.06;;;7.59;100.00
74529;BME280;63009;52.584;5.932;2023-04-09T06:10:13;102627.22;;;7.57;100.00
74529;BME280;63009;52.584;5.932;2023-04-09T06:12:38;102616.66;;;7.59;100.00
74529;BME280;63009;52.584;5.932;2023-04-09T06:15:04;102625.41;;;7.59;100.00
74529;BME280;63009;52.584;5.932;2023-04-09T06:17:30;102631.53;;;7.60;100.00
74529;BME280;63009;52.584;5.932;2023-04-09T06:19:55;102622.03;;;7.53;100.00
74529;BME280;63009;52.584;5.932;2023-04-09T06:22:20;102630.63;;;7.64;100.00
74529;BME280;63009;52.584;5.932;2023-04-09T06:24:45;102632.34;;;7.65;100.00
74529;BME280;63009;52.584;5.932;2023-04-09T06:27:11;102625.41;;;7.61;100.00
74529;BME280;63009;52.584;5.932;2023-04-09T06:29:36;102628.81;;;7.66;100.00
74529;BME280;63009;52.584;5.932;2023-04-09T06:32:01;102616.56;;;7.65;100.00
74529;BME280;63009;52.584;5.932;2023-04-09T06:34:27;102628.66;;;7.73;100.00
74529;BME280;63009;52.584;5.932;2023-04-09T06:36:52;102616.38;;;7.74;99.65
74529;BME280;63009;52.584;5.932;2023-04-09T06:39:17;102628.69;;;7.75;99.37
74529;BME280;63009;52.584;5.932;2023-04-09T06:41:43;102615.50;;;7.73;98.42
74529;BME280;63009;52.584;5.932;2023-04-09T06:44:08;102632.91;;;7.82;97.73
74529;BME280;63009;52.584;5.932;2023-04-09T06:46:33;102637.31;;;7.82;97.04
74529;BME280;63009;52.584;5.932;2023-04-09T06:48:58;102628.50;;;7.84;97.32
74529;BME280;63009;52.584;5.932;2023-04-09T06:51:24;102627.56;;;7.87;96.51
74529;BME280;63009;52.584;5.932;2023-04-09T06:53:49;102619.69;;;7.85;96.40
74529;BME280;63009;52.584;5.932;2023-04-09T06:56:14;102628.41;;;7.89;95.89
74529;BME280;63009;52.584;5.932;2023-04-09T06:58:40;102631.72;;;7.98;94.80
74529;BME280;63009;52.584;5.932;2023-04-09T07:01:05;102642.19;;;8.01;94.79
74529;BME280;63009;52.584;5.932;2023-04-09T07:03:30;102636.91;;;8.04;94.64
74529;BME280;63009;52.584;5.932;2023-04-09T07:05:56;102640.34;;;8.08;94.09
74529;BME280;63009;52.584;5.932;2023-04-09T07:08:22;102636.66;;;8.15;93.32
74529;BME280;63009;52.584;5.932;2023-04-09T07:10:47;102642.72;;;8.20;92.17
74529;BME280;63009;52.584;5.932;2023-04-09T07:13:12;102637.47;;;8.20;91.59
74529;BME280;63009;52.584;5.932;2023-04-09T07:15:38;102638.34;;;8.21;91.07
74529;BME280;63009;52.584;5.932;2023-04-09T07:18:03;102639.16;;;8.23;91.11
74529;BME280;63009;52.584;5.932;2023-04-09T07:20:28;102619.28;;;8.08;91.00
74529;BME280;63009;52.584;5.932;2023-04-09T07:22:54;102644.31;;;8.29;90.27
74529;BME280;63009;52.584;5.932;2023-04-09T07:25:19;102647.81;;;8.29;90.35
74529;BME280;63009;52.584;5.932;2023-04-09T07:27:45;102651.25;;;8.33;90.74
74529;BME280;63009;52.584;5.932;2023-04-09T07:30:10;102650.34;;;8.37;91.01
74529;BME280;63009;52.584;5.932;2023-04-09T07:32:36;102650.19;;;8.43;90.52
74529;BME280;63009;52.584;5.932;2023-04-09T07:35:04;102645.78;;;8.45;90.20
74529;BME280;63009;52.584;5.932;2023-04-09T07:37:30;102649.09;;;8.53;89.85
74529;BME280;63009;52.584;5.932;2023-04-09T07:39:55;102651.56;;;8.62;89.59
74529;BME280;63009;52.584;5.932;2023-04-09T07:42:21;102639.19;;;8.66;87.86
74529;BME280;63009;52.584;5.932;2023-04-09T07:44:46;102644.19;;;8.78;87.96
74529;BME280;63009;52.584;5.932;2023-04-09T07:47:11;102640.53;;;8.84;87.42
74529;BME280;63009;52.584;5.932;2023-04-09T07:49:37;102615.47;;;8.66;87.18
74529;BME280;63009;52.584;5.932;2023-04-09T07:52:03;102647.44;;;8.91;86.78
74529;BME280;63009;52.584;5.932;2023-04-09T07:54:29;102653.44;;;8.96;86.37
74529;BME280;63009;52.584;5.932;2023-04-09T07:56:58;102655.03;;;9.05;86.51
74529;BME280;63009;52.584;5.932;2023-04-09T07:59:23;102659.22;;;9.12;86.82
74529;BME280;63009;52.584;5.932;2023-04-09T08:01:49;102652.28;;;9.09;86.14
74529;BME280;63009;52.584;5.932;2023-04-09T08:04:14;102652.09;;;9.17;86.05
74529;BME280;63009;52.584;5.932;2023-04-09T08:06:40;102650.13;;;9.25;85.51
74529;BME280;63009;52.584;5.932;2023-04-09T08:09:05;102663.16;;;9.33;85.71
74529;BME280;63009;52.584;5.932;2023-04-09T08:11:31;102650.72;;;9.38;83.90
74529;BME280;63009;52.584;5.932;2023-04-09T08:13:56;102648.03;;;9.39;84.11
74529;BME280;63009;52.584;5.932;2023-04-09T08:16:22;102669.63;;;9.55;83.97
74529;BME280;63009;52.584;5.932;2023-04-09T08:18:51;102654.47;;;9.63;83.64
74529;BME280;63009;52.584;5.932;2023-04-09T08:21:17;102656.09;;;9.69;83.17
74529;BME280;63009;52.584;5.932;2023-04-09T08:23:42;102652.34;;;9.77;83.25
74529;BME280;63009;52.584;5.932;2023-04-09T08:26:07;102653.84;;;9.88;83.21
74529;BME280;63009;52.584;5.932;2023-04-09T08:28:33;102623.38;;;9.74;82.53
74529;BME280;63009;52.584;5.932;2023-04-09T08:30:58;102651.84;;;9.96;81.49
74529;BME280;63009;52.584;5.932;2023-04-09T08:33:24;102625.41;;;9.97;82.39
74529;BME280;63009;52.584;5.932;2023-04-09T08:35:50;102646.66;;;10.25;82.25
74529;BME280;63009;52.584;5.932;2023-04-09T08:38:15;102650.94;;;10.31;79.86
74529;BME280;63009;52.584;5.932;2023-04-09T08:40:41;102647.50;;;10.27;80.99
74529;BME280;63009;52.584;5.932;2023-04-09T08:43:07;102639.44;;;10.32;80.84
74529;BME280;63009;52.584;5.932;2023-04-09T08:45:33;102644.38;;;10.44;80.18
74529;BME280;63009;52.584;5.932;2023-04-09T08:47:58;102653.19;;;10.45;79.68
74529;BME280;63009;52.584;5.932;2023-04-09T08:50:25;102640.78;;;10.47;80.75
74529;BME280;63009;52.584;5.932;2023-04-09T08:52:52;102631.66;;;10.86;80.35
74529;BME280;63009;52.584;5.932;2023-04-09T08:55:17;102642.50;;;11.33;80.44
74529;BME280;63009;52.584;5.932;2023-04-09T08:57:42;102650.56;;;11.56;76.89
74529;BME280;63009;52.584;5.932;2023-04-09T09:00:08;102639.91;;;11.58;75.70
74529;BME280;63009;52.584;5.932;2023-04-09T09:02:34;102636.47;;;11.82;75.36
74529;BME280;63009;52.584;5.932;2023-04-09T09:04:59;102641.63;;;12.10;76.69
74529;BME280;63009;52.584;5.932;2023-04-09T09:07:28;102647.50;;;12.43;74.09
74529;BME280;63009;52.584;5.932;2023-04-09T09:09:56;102643.28;;;12.61;73.45
74529;BME280;63009;52.584;5.932;2023-04-09T09:12:29;102628.81;;;12.92;71.42
74529;BME280;63009;52.584;5.932;2023-04-09T09:14:55;102642.34;;;13.07;69.87
74529;BME280;63009;52.584;5.932;2023-04-09T09:17:20;102630.44;;;13.18;70.34
74529;BME280;63009;52.584;5.932;2023-04-09T09:19:45;102636.59;;;13.20;68.74
74529;BME280;63009;52.584;5.932;2023-04-09T09:22:10;102641.59;;;13.27;69.44
74529;BME280;63009;52.584;5.932;2023-04-09T09:24:47;102634.84;;;13.41;69.37
74529;BME280;63009;52.584;5.932;2023-04-09T09:27:34;102627.31;;;13.52;67.49
74529;BME280;63009;52.584;5.932;2023-04-09T09:30:04;102633.78;;;13.45;66.81
74529;BME280;63009;52.584;5.932;2023-04-09T09:32:30;102611.25;;;13.11;67.36
74529;BME280;63009;52.584;5.932;2023-04-09T09:35:03;102624.09;;;13.44;69.38
74529;BME280;63009;52.584;5.932;2023-04-09T09:37:30;102619.22;;;13.33;67.94
74529;BME280;63009;52.584;5.932;2023-04-09T09:39:56;102624.88;;;13.02;69.21
74529;BME280;63009;52.584;5.932;2023-04-09T09:42:21;102611.69;;;13.00;69.46
74529;BME280;63009;52.584;5.932;2023-04-09T09:44:46;102617.78;;;13.46;72.58
74529;BME280;63009;52.584;5.932;2023-04-09T09:47:13;102611.81;;;13.61;67.13
74529;BME280;63009;52.584;5.932;2023-04-09T09:49:39;102611.03;;;14.19;67.33
74529;BME280;63009;52.584;5.932;2023-04-09T09:52:09;102611.56;;;14.08;64.72
74529;BME280;63009;52.584;5.932;2023-04-09T09:54:40;102600.84;;;14.10;62.45
74529;BME280;63009;52.584;5.932;2023-04-09T09:57:09;102620.72;;;14.40;64.08
74529;BME280;63009;52.584;5.932;2023-04-09T09:59:40;102604.63;;;14.43;63.03
74529;BME280;63009;52.584;5.932;2023-04-09T10:02:27;102601.53;;;14.90;61.92
74529;BME280;63009;52.584;5.932;2023-04-09T10:04:59;102584.16;;;15.00;61.22
74529;BME280;63009;52.584;5.932;2023-04-09T10:07:25;102602.03;;;14.98;58.94
74529;BME280;63009;52.584;5.932;2023-04-09T10:09:53;102587.09;;;15.13;57.98
74529;BME280;63009;52.584;5.932;2023-04-09T10:12:21;102567.25;;;15.19;59.29
74529;BME280;63009;52.584;5.932;2023-04-09T10:14:50;102595.59;;;15.56;59.92
74529;BME280;63009;52.584;5.932;2023-04-09T10:17:17;102580.94;;;15.82;58.51
74529;BME280;63009;52.584;5.932;2023-04-09T10:19:53;102579.44;;;15.93;55.38
74529;BME280;63009;52.584;5.932;2023-04-09T10:22:20;102562.84;;;15.71;56.58
74529;BME280;63009;52.584;5.932;2023-04-09T10:24:47;102589.81;;;15.65;56.76
74529;BME280;63009;52.584;5.932;2023-04-09T10:27:14;102572.53;;;15.55;55.88
74529;BME280;63009;52.584;5.932;2023-04-09T10:29:45;102571.50;;;15.57;56.52
74529;BME280;63009;52.584;5.932;2023-04-09T10:32:11;102569.53;;;15.62;55.99
74529;BME280;63009;52.584;5.932;2023-04-09T10:34:39;102570.44;;;15.79;56.39
74529;BME280;63009;52.584;5.932;2023-04-09T10:37:10;102569.19;;;16.01;55.75
74529;BME280;63009;52.584;5.932;2023-04-09T10:39:39;102547.38;;;15.43;55.14
74529;BME280;63009;52.584;5.932;2023-04-09T10:42:11;102577.50;;;15.80;55.76
74529;BME280;63009;52.584;5.932;2023-04-09T10:44:38;102563.44;;;15.76;56.76
74529;BME280;63009;52.584;5.932;2023-04-09T10:47:05;102567.56;;;15.66;53.93
74529;BME280;63009;52.584;5.932;2023-04-09T10:49:40;102553.00;;;15.89;55.39
74529;BME280;63009;52.584;5.932;2023-04-09T10:52:10;102547.28;;;16.12;54.87
74529;BME280;63009;52.584;5.932;2023-04-09T10:54:44;102559.41;;;16.02;54.72
74529;BME280;63009;52.584;5.932;2023-04-09T10:57:17;102538.41;;;15.96;53.94
74529;BME280;63009;52.584;5.932;2023-04-09T10:59:45;102554.69;;;16.07;53.85
74529;BME280;63009;52.584;5.932;2023-04-09T11:07:47;102542.75;;;16.30;52.99
74529;BME280;63009;52.584;5.932;2023-04-09T11:10:13;102528.63;;;16.12;54.04
74529;BME280;63009;52.584;5.932;2023-04-09T11:12:39;102525.38;;;16.23;54.49
74529;BME280;63009;52.584;5.932;2023-04-09T11:15:05;102525.75;;;15.99;53.39
74529;BME280;63009;52.584;5.932;2023-04-09T11:17:34;102534.13;;;16.09;53.60
74529;BME280;63009;52.584;5.932;2023-04-09T11:20:01;102525.53;;;16.20;54.19
74529;BME280;63009;52.584;5.932;2023-04-09T11:22:28;102532.50;;;16.54;53.16
74529;BME280;63009;52.584;5.932;2023-04-09T11:24:53;102515.19;;;16.14;52.01
74529;BME280;63009;52.584;5.932;2023-04-09T11:27:18;102523.19;;;15.98;52.71
74529;BME280;63009;52.584;5.932;2023-04-09T11:29:44;102514.84;;;15.71;53.76
74529;BME280;63009;52.584;5.932;2023-04-09T11:32:09;102516.34;;;15.42;53.56
74529;BME280;63009;52.584;5.932;2023-04-09T11:34:34;102507.03;;;15.51;54.08
74529;BME280;63009;52.584;5.932;2023-04-09T11:36:59;102519.25;;;15.55;53.76
74529;BME280;63009;52.584;5.932;2023-04-09T11:39:31;102507.75;;;15.37;53.82
74529;BME280;63009;52.584;5.932;2023-04-09T11:41:56;102494.00;;;15.62;54.99
74529;BME280;63009;52.584;5.932;2023-04-09T11:44:22;102515.75;;;15.87;51.92
74529;BME280;63009;52.584;5.932;2023-04-09T11:46:47;102510.50;;;15.86;51.32
74529;BME280;63009;52.584;5.932;2023-04-09T11:49:14;102517.53;;;16.20;52.03
74529;BME280;63009;52.584;5.932;2023-04-09T11:51:40;102519.84;;;16.10;50.95
74529;BME280;63009;52.584;5.932;2023-04-09T11:54:06;102518.13;;;16.25;51.46
74529;BME280;63009;52.584;5.932;2023-04-09T11:56:32;102502.47;;;16.19;51.01
74529;BME280;63009;52.584;5.932;2023-04-09T11:59:00;102515.66;;;16.38;52.28
74529;BME280;63009;52.584;5.932;2023-04-09T12:01:29;102500.13;;;16.28;50.06
74529;BME280;63009;52.584;5.932;2023-04-09T12:03:56;102500.03;;;16.14;52.68
74529;BME280;63009;52.584;5.932;2023-04-09T12:06:22;102509.78;;;16.15;51.00
74529;BME280;63009;52.584;5.932;2023-04-09T12:08:58;102504.88;;;16.23;50.57
74529;BME280;63009;52.584;5.932;2023-04-09T12:11:28;102507.97;;;16.31;49.89
74529;BME280;63009;52.584;5.932;2023-04-09T12:13:58;102509.78;;;16.31;50.99
74529;BME280;63009;52.584;5.932;2023-04-09T12:16:25;102506.34;;;16.45;48.57
74529;BME280;63009;52.584;5.932;2023-04-09T12:18:50;102501.84;;;16.14;48.84
74529;BME280;63009;52.584;5.932;2023-04-09T12:21:23;102514.69;;;16.23;50.28
74529;BME280;63009;52.584;5.932;2023-04-09T12:23:48;102503.50;;;16.48;51.18
74529;BME280;63009;52.584;5.932;2023-04-09T12:26:13;102494.28;;;16.69;50.18
74529;BME280;63009;52.584;5.932;2023-04-09T12:28:39;102502.22;;;17.01;48.64
74529;BME280;63009;52.584;5.932;2023-04-09T12:31:08;102491.75;;;16.98;45.67
74529;BME280;63009;52.584;5.932;2023-04-09T12:33:34;102486.66;;;16.47;46.52
74529;BME280;63009;52.584;5.932;2023-04-09T12:36:03;102483.63;;;16.38;47.77
74529;BME280;63009;52.584;5.932;2023-04-09T12:38:28;102485.63;;;16.34;46.79
74529;BME280;63009;52.584;5.932;2023-04-09T12:40:53;102495.31;;;16.67;48.14
74529;BME280;63009;52.584;5.932;2023-04-09T12:43:18;102476.53;;;16.84;48.22
74529;BME280;63009;52.584;5.932;2023-04-09T12:45:44;102473.00;;;16.83;46.44
74529;BME280;63009;52.584;5.932;2023-04-09T12:48:09;102491.44;;;17.02;46.66
74529;BME280;63009;52.584;5.932;2023-04-09T12:50:35;102484.03;;;16.77;46.71
74529;BME280;63009;52.584;5.932;2023-04-09T12:53:01;102482.75;;;16.53;46.94
74529;BME280;63009;52.584;5.932;2023-04-09T12:55:26;102482.56;;;16.56;46.82
74529;BME280;63009;52.584;5.932;2023-04-09T12:57:52;102479.03;;;16.55;46.87
74529;BME280;63009;52.584;5.932;2023-04-09T13:00:17;102476.03;;;16.61;47.78
74529;BME280;63009;52.584;5.932;2023-04-09T13:02:42;102476.03;;;16.77;47.25
74529;BME280;63009;52.584;5.932;2023-04-09T13:05:08;102462.31;;;16.83;46.34